Time;durP1;ratioP1;P1;durP2;ratioP2;P2;SDS_P1;SDS_P2;PMS_P1;PMS_P2;Temp;Humidity;BMP_temperature;BMP_pressure;BME280_temperature;BME280_humidity;BME280_pressure;Samples;Min_cycle;Max_cycle;Signal;HPM_P1;HPM_P2
2024/05/04 00:00:11;;;;;;;5.85;2.03;;;;;;;;;;5433271;26;20007;-83
2024/05/04 00:02:37;;;;;;;2.05;1.60;;;;;;;;;;5421213;26;20439;-83
2024/05/04 00:05:03;;;;;;;4.38;1.55;;;;;;;;;;5421118;26;20010;-82
2024/05/04 00:07:29;;;;;;;3.55;1.35;;;;;;;;;;5420611;26;20000;-82
2024/05/04 00:09:55;;;;;;;2.55;1.77;;;;;;;;;;5420888;26;20023;-82
2024/05/04 00:12:21;;;;;;;3.35;1.45;;;;;;;;;;5420125;26;19991;-82
2024/05/04 00:14:48;;;;;;;5.75;1.45;;;;;;;;;;5421713;26;20007;-82
2024/05/04 00:17:14;;;;;;;3.83;1.60;;;;;;;;;;5442563;26;19994;-82
2024/05/04 00:19:40;;;;;;;2.38;1.40;;;;;;;;;;5452959;26;20524;-82
2024/05/04 00:22:06;;;;;;;5.90;1.80;;;;;;;;;;5420633;26;19999;-83
2024/05/04 00:24:32;;;;;;;2.13;1.70;;;;;;;;;;5419026;26;20018;-82
2024/05/04 00:26:58;;;;;;;6.28;1.90;;;;;;;;;;5418534;26;20024;-83
2024/05/04 00:29:24;;;;;;;3.13;1.50;;;;;;;;;;5420287;26;19995;-83
2024/05/04 00:31:50;;;;;;;4.45;1.40;;;;;;;;;;5445479;26;20038;-83
2024/05/04 00:34:16;;;;;;;7.68;1.95;;;;;;;;;;5433807;26;19995;-83
2024/05/04 00:36:42;;;;;;;6.90;1.80;;;;;;;;;;5417815;26;20082;-82
2024/05/04 00:39:08;;;;;;;4.05;1.40;;;;;;;;;;5420032;26;19996;-82
2024/05/04 00:41:34;;;;;;;4.10;1.88;;;;;;;;;;5446230;26;20165;-83
2024/05/04 00:44:00;;;;;;;4.30;1.30;;;;;;;;;;5451723;26;20503;-82
2024/05/04 00:46:26;;;;;;;4.32;1.58;;;;;;;;;;5455404;26;20038;-83
2024/05/04 00:48:52;;;;;;;3.13;1.50;;;;;;;;;;5453879;26;20352;-83
2024/05/04 00:51:19;;;;;;;1.35;1.25;;;;;;;;;;5451056;26;20006;-83
2024/05/04 00:53:46;;;;;;;4.20;1.80;;;;;;;;;;5448571;26;20046;-83
2024/05/04 00:56:14;;;;;;;2.92;1.58;;;;;;;;;;5453895;26;20072;-85
2024/05/04 00:58:41;;;;;;;3.65;1.80;;;;;;;;;;5453641;26;20023;-83
2024/05/04 01:01:07;;;;;;;4.40;1.67;;;;;;;;;;5453173;26;19995;-82
2024/05/04 01:03:33;;;;;;;6.05;1.70;;;;;;;;;;5455929;26;20034;-81
2024/05/04 01:06:00;;;;;;;2.55;1.83;;;;;;;;;;5440838;26;19995;-81
2024/05/04 01:08:26;;;;;;;3.33;1.60;;;;;;;;;;5427517;26;20003;-82
2024/05/04 01:10:53;;;;;;;4.03;1.70;;;;;;;;;;5453743;26;20002;-82
2024/05/04 01:13:19;;;;;;;3.25;1.70;;;;;;;;;;5431613;26;20008;-84
2024/05/04 01:15:45;;;;;;;2.95;1.83;;;;;;;;;;5417756;26;20448;-81
2024/05/04 01:18:11;;;;;;;7.93;1.80;;;;;;;;;;5446976;26;19999;-82
2024/05/04 01:20:37;;;;;;;4.18;1.90;;;;;;;;;;5455532;26;19991;-81
2024/05/04 01:23:03;;;;;;;4.53;1.80;;;;;;;;;;5457129;26;20327;-83
2024/05/04 01:25:29;;;;;;;3.95;1.42;;;;;;;;;;5457219;26;20039;-81
2024/05/04 01:27:55;;;;;;;2.55;1.80;;;;;;;;;;5433702;26;19999;-85
2024/05/04 01:30:21;;;;;;;8.00;1.73;;;;;;;;;;5417690;26;19992;-82
2024/05/04 01:32:47;;;;;;;3.45;1.60;;;;;;;;;;5417430;26;19995;-83
2024/05/04 01:35:14;;;;;;;7.18;1.80;;;;;;;;;;5416762;26;20010;-82
2024/05/04 01:37:40;;;;;;;4.03;1.77;;;;;;;;;;5421833;26;20007;-83
2024/05/04 01:40:07;;;;;;;5.45;2.50;;;;;;;;;;5418246;26;20002;-84
2024/05/04 01:42:33;;;;;;;3.63;1.55;;;;;;;;;;5417877;26;19996;-82
2024/05/04 01:44:59;;;;;;;4.25;1.50;;;;;;;;;;5418149;26;20000;-83
2024/05/04 01:47:25;;;;;;;9.38;1.80;;;;;;;;;;5442008;26;20006;-83
2024/05/04 01:49:51;;;;;;;5.10;1.63;;;;;;;;;;5455559;26;20452;-83
2024/05/04 01:52:17;;;;;;;11.52;1.88;;;;;;;;;;5454071;26;19991;-83
2024/05/04 01:54:43;;;;;;;4.55;1.63;;;;;;;;;;5454071;26;20003;-83
2024/05/04 01:57:09;;;;;;;2.33;1.52;;;;;;;;;;5438875;26;20003;-83
2024/05/04 01:59:35;;;;;;;5.28;2.00;;;;;;;;;;5432786;26;20452;-82
2024/05/04 02:02:01;;;;;;;4.43;1.63;;;;;;;;;;5455712;26;20186;-83
2024/05/04 02:04:28;;;;;;;1.95;1.65;;;;;;;;;;5455761;26;20042;-82
2024/05/04 02:06:54;;;;;;;2.95;1.60;;;;;;;;;;5450971;26;20009;-83
2024/05/04 02:09:20;;;;;;;2.80;1.58;;;;;;;;;;5431440;26;20007;-82
2024/05/04 02:11:46;;;;;;;3.38;1.85;;;;;;;;;;5435687;26;19999;-82
2024/05/04 02:14:12;;;;;;;2.65;1.75;;;;;;;;;;5454809;26;19995;-82
2024/05/04 02:16:38;;;;;;;6.50;2.13;;;;;;;;;;5457894;26;19995;-82
2024/05/04 02:19:05;;;;;;;3.22;1.73;;;;;;;;;;5465906;26;19995;-82
2024/05/04 02:21:31;;;;;;;7.85;1.98;;;;;;;;;;5459801;26;19991;-82
2024/05/04 02:23:58;;;;;;;4.03;1.70;;;;;;;;;;5452501;26;20010;-82
2024/05/04 02:26:24;;;;;;;4.18;1.92;;;;;;;;;;5451762;26;20075;-82
2024/05/04 02:28:50;;;;;;;4.70;1.75;;;;;;;;;;5452415;26;20026;-82
2024/05/04 02:31:16;;;;;;;4.68;1.80;;;;;;;;;;5452645;26;19994;-82
2024/05/04 02:33:42;;;;;;;4.22;1.80;;;;;;;;;;5453280;26;20003;-82
2024/05/04 02:36:08;;;;;;;7.35;2.28;;;;;;;;;;5444742;26;20571;-82
2024/05/04 02:38:34;;;;;;;3.05;2.20;;;;;;;;;;5420008;26;20432;-82
2024/05/04 02:41:00;;;;;;;5.63;1.60;;;;;;;;;;5420462;26;20455;-81
2024/05/04 02:43:26;;;;;;;9.15;2.10;;;;;;;;;;5418414;26;20457;-82
2024/05/04 02:45:52;;;;;;;19.33;1.80;;;;;;;;;;5426892;26;20440;-81
2024/05/04 02:48:18;;;;;;;7.13;1.63;;;;;;;;;;5456023;26;20006;-82
2024/05/04 02:50:44;;;;;;;6.57;1.65;;;;;;;;;;5457557;26;20010;-81
2024/05/04 02:53:13;;;;;;;11.32;1.90;;;;;;;;;;5458095;26;19994;-82
2024/05/04 02:55:40;;;;;;;6.05;2.00;;;;;;;;;;5455414;26;19991;-81
2024/05/04 02:58:06;;;;;;;4.22;1.80;;;;;;;;;;5422344;26;20432;-82
2024/05/04 03:00:32;;;;;;;3.40;1.73;;;;;;;;;;5430724;26;20468;-82
2024/05/04 03:02:58;;;;;;;2.05;1.73;;;;;;;;;;5459786;26;19995;-83
2024/05/04 03:05:24;;;;;;;5.35;2.05;;;;;;;;;;5432421;26;20009;-82
2024/05/04 03:07:51;;;;;;;5.35;1.95;;;;;;;;;;5420897;26;20000;-82
2024/05/04 03:10:17;;;;;;;4.78;2.13;;;;;;;;;;5420228;26;20003;-83
2024/05/04 03:12:43;;;;;;;4.70;1.95;;;;;;;;;;5423737;26;20043;-83
2024/05/04 03:15:09;;;;;;;5.03;1.92;;;;;;;;;;5422860;26;20073;-82
2024/05/04 03:17:35;;;;;;;6.80;1.85;;;;;;;;;;5454325;26;19995;-83
2024/05/04 03:20:02;;;;;;;4.18;2.25;;;;;;;;;;5458890;26;19999;-82
2024/05/04 03:22:28;;;;;;;7.07;2.08;;;;;;;;;;5460217;26;19998;-81
2024/05/04 03:24:54;;;;;;;4.78;2.10;;;;;;;;;;5460322;26;19995;-82
2024/05/04 03:27:20;;;;;;;7.05;2.17;;;;;;;;;;5457616;26;20080;-81
2024/05/04 03:29:46;;;;;;;7.85;2.47;;;;;;;;;;5460929;26;19998;-82
2024/05/04 03:32:12;;;;;;;4.55;2.08;;;;;;;;;;5461059;26;20005;-81
2024/05/04 03:34:38;;;;;;;6.07;2.13;;;;;;;;;;5457821;26;20017;-81
2024/05/04 03:37:04;;;;;;;5.15;2.13;;;;;;;;;;5438259;26;20327;-82
2024/05/04 03:39:30;;;;;;;6.13;2.10;;;;;;;;;;5450244;26;19995;-81
2024/05/04 03:41:56;;;;;;;3.83;1.77;;;;;;;;;;5464432;26;20007;-80
2024/05/04 03:44:22;;;;;;;4.25;2.05;;;;;;;;;;5463044;26;20056;-81
2024/05/04 03:46:48;;;;;;;3.47;1.77;;;;;;;;;;5442439;26;20415;-81
2024/05/04 03:49:14;;;;;;;3.42;1.60;;;;;;;;;;5424102;26;19995;-81
2024/05/04 03:51:40;;;;;;;3.60;1.70;;;;;;;;;;5425134;26;20034;-80
2024/05/04 03:54:06;;;;;;;3.05;1.70;;;;;;;;;;5423828;26;19995;-80
2024/05/04 03:56:32;;;;;;;6.28;2.13;;;;;;;;;;5443982;26;20002;-81
2024/05/04 03:58:58;;;;;;;9.57;1.75;;;;;;;;;;5460746;26;20007;-81
2024/05/04 04:01:25;;;;;;;5.25;2.05;;;;;;;;;;5452284;26;20009;-79
2024/05/04 04:03:51;;;;;;;3.78;1.40;;;;;;;;;;5459150;26;20006;-80
2024/05/04 04:06:19;;;;;;;4.95;1.98;;;;;;;;;;5460594;26;19995;-81
2024/05/04 04:08:45;;;;;;;6.22;2.38;;;;;;;;;;5459867;26;20044;-80
2024/05/04 04:11:11;;;;;;;6.88;2.40;;;;;;;;;;5432358;26;20000;-81
2024/05/04 04:13:37;;;;;;;2.15;1.90;;;;;;;;;;5434388;26;20004;-81
2024/05/04 04:16:03;;;;;;;3.42;2.00;;;;;;;;;;5423707;26;20056;-82
2024/05/04 04:18:29;;;;;;;5.30;2.10;;;;;;;;;;5446015;26;20022;-82
2024/05/04 04:20:55;;;;;;;4.55;2.30;;;;;;;;;;5466125;26;20324;-82
2024/05/04 04:23:21;;;;;;;7.50;2.08;;;;;;;;;;5467018;26;19994;-83
2024/05/04 04:25:47;;;;;;;3.65;1.70;;;;;;;;;;5461148;26;20050;-84
2024/05/04 04:28:13;;;;;;;4.80;2.13;;;;;;;;;;5454943;26;20075;-82
2024/05/04 04:30:39;;;;;;;5.65;2.35;;;;;;;;;;5456263;26;20003;-84
2024/05/04 04:33:07;;;;;;;6.68;2.05;;;;;;;;;;5467682;26;19991;-82
2024/05/04 04:35:33;;;;;;;7.32;2.20;;;;;;;;;;5464835;26;20021;-81
2024/05/04 04:37:59;;;;;;;6.75;1.95;;;;;;;;;;5437271;26;19995;-83
2024/05/04 04:40:25;;;;;;;5.35;2.00;;;;;;;;;;5430024;26;19999;-82
2024/05/04 04:42:52;;;;;;;2.70;1.70;;;;;;;;;;5429804;26;20072;-84
2024/05/04 04:45:18;;;;;;;4.63;2.10;;;;;;;;;;5441166;26;20052;-82
2024/05/04 04:47:44;;;;;;;8.18;2.10;;;;;;;;;;5443266;26;19994;-84
2024/05/04 04:50:10;;;;;;;5.63;2.20;;;;;;;;;;5457297;26;20013;-83
2024/05/04 04:52:36;;;;;;;4.53;2.55;;;;;;;;;;5467735;26;19990;-82
2024/05/04 04:55:02;;;;;;;3.72;2.00;;;;;;;;;;5465818;26;20002;-84
2024/05/04 04:57:28;;;;;;;7.10;1.80;;;;;;;;;;5464928;26;20276;-82
2024/05/04 04:59:54;;;;;;;7.13;2.10;;;;;;;;;;5456385;26;19999;-82
2024/05/04 05:02:20;;;;;;;4.07;2.03;;;;;;;;;;5456659;26;19999;-82
2024/05/04 05:04:46;;;;;;;3.47;1.73;;;;;;;;;;5457046;26;19996;-84
2024/05/04 05:07:12;;;;;;;7.60;2.30;;;;;;;;;;5456033;26;19995;-82
2024/05/04 05:09:38;;;;;;;6.50;2.15;;;;;;;;;;5463767;26;20446;-82
2024/05/04 05:12:05;;;;;;;4.20;2.00;;;;;;;;;;5460170;26;19995;-83
2024/05/04 05:14:31;;;;;;;5.55;2.22;;;;;;;;;;5459871;26;20019;-82
2024/05/04 05:16:57;;;;;;;3.88;1.88;;;;;;;;;;5463005;26;19991;-83
2024/05/04 05:19:24;;;;;;;6.28;1.90;;;;;;;;;;5461968;26;20007;-82
2024/05/04 05:21:50;;;;;;;3.70;1.92;;;;;;;;;;5456385;26;20190;-82
2024/05/04 05:24:16;;;;;;;7.07;1.77;;;;;;;;;;5445037;26;19995;-81
2024/05/04 05:26:42;;;;;;;5.75;2.10;;;;;;;;;;5460883;26;19993;-82
2024/05/04 05:29:08;;;;;;;4.40;2.00;;;;;;;;;;5461995;26;19995;-82
2024/05/04 05:31:34;;;;;;;6.60;2.20;;;;;;;;;;5452499;26;20317;-82
2024/05/04 05:34:02;;;;;;;3.95;1.92;;;;;;;;;;5430897;26;19996;-82
2024/05/04 05:36:28;;;;;;;5.97;2.10;;;;;;;;;;5427122;26;19988;-83
2024/05/04 05:38:54;;;;;;;5.43;2.22;;;;;;;;;;5426972;26;20003;-86
2024/05/04 05:41:20;;;;;;;2.65;1.77;;;;;;;;;;5427214;26;20007;-82
2024/05/04 05:43:46;;;;;;;5.28;1.67;;;;;;;;;;5429744;26;20344;-84
2024/05/04 05:46:12;;;;;;;4.57;2.00;;;;;;;;;;5425188;26;20000;-84
2024/05/04 05:48:38;;;;;;;6.20;2.03;;;;;;;;;;5427038;26;20006;-81
2024/05/04 05:51:04;;;;;;;2.50;1.80;;;;;;;;;;5431425;26;20003;-84
2024/05/04 05:53:30;;;;;;;5.18;2.17;;;;;;;;;;5444696;26;20019;-84
2024/05/04 05:55:56;;;;;;;3.88;2.10;;;;;;;;;;5464007;26;20365;-85
2024/05/04 05:58:22;;;;;;;8.98;2.05;;;;;;;;;;5464746;26;19995;-83
2024/05/04 06:00:48;;;;;;;6.10;1.77;;;;;;;;;;5448237;26;20468;-82
2024/05/04 06:03:14;;;;;;;3.85;2.30;;;;;;;;;;5443001;26;19999;-83
2024/05/04 06:05:42;;;;;;;5.15;1.73;;;;;;;;;;5434652;26;20031;-82
2024/05/04 06:08:08;;;;;;;4.38;1.60;;;;;;;;;;5429881;26;20017;-83
2024/05/04 06:10:34;;;;;;;11.32;2.03;;;;;;;;;;5428606;26;20004;-82
2024/05/04 06:13:00;;;;;;;8.52;1.98;;;;;;;;;;5455158;26;20006;-84
2024/05/04 06:15:26;;;;;;;6.13;2.00;;;;;;;;;;5463104;26;20005;-84
2024/05/04 06:17:52;;;;;;;9.13;2.53;;;;;;;;;;5461003;26;19999;-83
2024/05/04 06:20:19;;;;;;;3.42;2.22;;;;;;;;;;5461705;26;20126;-83
2024/05/04 06:22:45;;;;;;;6.10;1.90;;;;;;;;;;5432118;26;19992;-82
2024/05/04 06:25:12;;;;;;;2.97;1.70;;;;;;;;;;5426355;26;20016;-83
2024/05/04 06:27:38;;;;;;;4.50;1.75;;;;;;;;;;5430950;26;20060;-83
2024/05/04 06:30:05;;;;;;;3.67;1.75;;;;;;;;;;5427961;26;20054;-82
2024/05/04 06:32:33;;;;;;;3.50;1.90;;;;;;;;;;5390801;26;20033;-81
2024/05/04 06:34:59;;;;;;;5.43;1.80;;;;;;;;;;5391166;26;20008;-83
2024/05/04 06:37:25;;;;;;;4.30;2.53;;;;;;;;;;5418223;26;20022;-83
2024/05/04 06:39:51;;;;;;;4.43;1.80;;;;;;;;;;5421228;26;20074;-83
2024/05/04 06:42:18;;;;;;;2.60;1.98;;;;;;;;;;5421244;26;20460;-83
2024/05/04 06:44:44;;;;;;;8.73;2.08;;;;;;;;;;5421779;26;20000;-80
2024/05/04 06:47:10;;;;;;;8.75;2.38;;;;;;;;;;5419160;26;20332;-82
2024/05/04 06:49:36;;;;;;;8.05;2.30;;;;;;;;;;5418472;26;20328;-81
2024/05/04 06:52:02;;;;;;;6.05;2.05;;;;;;;;;;5416629;26;20449;-81
2024/05/04 06:54:28;;;;;;;4.28;2.15;;;;;;;;;;5418529;26;20440;-80
2024/05/04 06:56:56;;;;;;;5.57;1.92;;;;;;;;;;5417276;26;20098;-81
2024/05/04 06:59:22;;;;;;;3.40;1.90;;;;;;;;;;5414811;26;20008;-81
2024/05/04 07:01:48;;;;;;;5.97;2.10;;;;;;;;;;5416261;26;20464;-80
2024/05/04 07:04:14;;;;;;;5.97;2.00;;;;;;;;;;5415409;26;20006;-81
2024/05/04 07:06:40;;;;;;;7.75;2.20;;;;;;;;;;5415697;26;20004;-81
2024/05/04 07:09:06;;;;;;;3.33;2.05;;;;;;;;;;5417594;26;20028;-81
2024/05/04 07:11:32;;;;;;;7.90;2.25;;;;;;;;;;5417922;26;19999;-79
2024/05/04 07:14:05;;;;;;;7.70;2.00;;;;;;;;;;5415026;26;20026;-80
2024/05/04 07:16:32;;;;;;;2.55;1.90;;;;;;;;;;5416501;26;20046;-81
2024/05/04 07:18:58;;;;;;;6.85;2.55;;;;;;;;;;5417320;26;20134;-82
2024/05/04 07:21:24;;;;;;;7.60;2.28;;;;;;;;;;5435643;26;20049;-80
2024/05/04 07:23:50;;;;;;;5.28;1.92;;;;;;;;;;5427070;26;20014;-80
2024/05/04 07:26:16;;;;;;;4.50;2.03;;;;;;;;;;5431782;26;20015;-81
2024/05/04 07:28:42;;;;;;;4.32;2.45;;;;;;;;;;5415091;26;19996;-80
2024/05/04 07:31:08;;;;;;;6.15;1.98;;;;;;;;;;5414764;26;20003;-81
2024/05/04 07:33:34;;;;;;;7.57;2.25;;;;;;;;;;5417082;26;20398;-81
2024/05/04 07:36:01;;;;;;;6.45;2.22;;;;;;;;;;5421699;26;20072;-80
2024/05/04 07:38:27;;;;;;;8.90;2.38;;;;;;;;;;5421344;26;20026;-81
2024/05/04 07:40:53;;;;;;;6.30;2.20;;;;;;;;;;5425513;26;20009;-82
2024/05/04 07:43:19;;;;;;;4.75;2.10;;;;;;;;;;5421849;26;20060;-84
2024/05/04 07:45:45;;;;;;;7.45;2.28;;;;;;;;;;5420656;26;20012;-82
2024/05/04 07:48:11;;;;;;;5.82;2.10;;;;;;;;;;5423304;26;20348;-82
2024/05/04 07:50:37;;;;;;;8.88;1.92;;;;;;;;;;5424285;26;19999;-85
2024/05/04 07:53:03;;;;;;;7.05;2.30;;;;;;;;;;5427571;26;19999;-81
2024/05/04 07:55:29;;;;;;;7.53;1.98;;;;;;;;;;5428248;26;20003;-80
2024/05/04 07:57:55;;;;;;;5.28;2.22;;;;;;;;;;5424682;26;20093;-79
2024/05/04 08:00:22;;;;;;;5.82;2.80;;;;;;;;;;5423725;26;20016;-82
2024/05/04 08:02:50;;;;;;;5.63;2.17;;;;;;;;;;5425641;26;20007;-83
2024/05/04 08:05:16;;;;;;;7.38;2.22;;;;;;;;;;5421931;26;20011;-80
2024/05/04 08:07:42;;;;;;;4.78;1.95;;;;;;;;;;5419268;26;20009;-82
2024/05/04 08:10:08;;;;;;;8.85;2.25;;;;;;;;;;5420799;26;20465;-83
2024/05/04 08:12:34;;;;;;;5.72;2.35;;;;;;;;;;5419858;26;20035;-84
2024/05/04 08:15:00;;;;;;;5.35;2.42;;;;;;;;;;5423332;26;19988;-84
2024/05/04 08:17:27;;;;;;;5.38;2.40;;;;;;;;;;5424624;26;20004;-84
2024/05/04 08:19:56;;;;;;;5.78;3.03;;;;;;;;;;5423158;26;20002;-83
2024/05/04 08:22:22;;;;;;;7.88;2.80;;;;;;;;;;5421021;26;20004;-81
2024/05/04 08:24:48;;;;;;;4.45;2.45;;;;;;;;;;5443380;26;20002;-82
2024/05/04 08:27:15;;;;;;;9.40;2.30;;;;;;;;;;5461471;26;20003;-85
2024/05/04 08:29:41;;;;;;;6.68;2.40;;;;;;;;;;5440675;26;20004;-84
2024/05/04 08:32:08;;;;;;;10.23;2.42;;;;;;;;;;5422678;26;20020;-81
2024/05/04 08:34:34;;;;;;;5.18;2.30;;;;;;;;;;5421410;26;19995;-82
2024/05/04 08:37:00;;;;;;;9.88;2.33;;;;;;;;;;5418851;26;20010;-82
2024/05/04 08:39:26;;;;;;;4.18;2.40;;;;;;;;;;5418825;26;20317;-81
2024/05/04 08:41:56;;;;;;;5.65;2.30;;;;;;;;;;5419739;26;20003;-81
2024/05/04 08:44:23;;;;;;;4.75;2.15;;;;;;;;;;5417200;26;20417;-81
2024/05/04 08:46:53;;;;;;;5.70;2.47;;;;;;;;;;5416121;26;20032;-80
2024/05/04 08:49:20;;;;;;;4.13;2.20;;;;;;;;;;5418430;26;19991;-80
2024/05/04 08:51:49;;;;;;;6.47;2.30;;;;;;;;;;5416151;26;20494;-80
2024/05/04 08:54:15;;;;;;;7.15;2.50;;;;;;;;;;5417325;26;20011;-81
2024/05/04 08:56:44;;;;;;;4.28;2.13;;;;;;;;;;5416110;26;20118;-79
2024/05/04 08:59:10;;;;;;;7.93;2.15;;;;;;;;;;5416153;26;19999;-83
2024/05/04 09:01:38;;;;;;;4.50;2.20;;;;;;;;;;5417647;26;20406;-78
2024/05/04 09:04:05;;;;;;;6.40;2.42;;;;;;;;;;5418009;26;20031;-80
2024/05/04 09:06:32;;;;;;;8.77;2.70;;;;;;;;;;5415989;26;20000;-81
2024/05/04 09:08:58;;;;;;;7.90;2.30;;;;;;;;;;5419478;26;19998;-81
2024/05/04 09:11:24;;;;;;;8.48;2.33;;;;;;;;;;5420673;26;20006;-80
2024/05/04 09:13:50;;;;;;;5.93;2.58;;;;;;;;;;5416454;26;20010;-81
2024/05/04 09:16:17;;;;;;;7.00;2.13;;;;;;;;;;5416183;26;20463;-80
2024/05/04 09:18:43;;;;;;;5.38;2.35;;;;;;;;;;5419263;26;20070;-83
2024/05/04 09:21:10;;;;;;;1.98;1.35;;;;;;;;;;5418222;26;20014;-81
2024/05/04 09:23:36;;;;;;;6.03;2.90;;;;;;;;;;5419710;26;20006;-81
2024/05/04 09:26:02;;;;;;;4.72;2.20;;;;;;;;;;5417764;26;20129;-82
2024/05/04 09:28:28;;;;;;;7.13;2.63;;;;;;;;;;5416654;26;19995;-82
2024/05/04 09:30:55;;;;;;;10.25;2.28;;;;;;;;;;5416692;26;19998;-81
2024/05/04 09:33:21;;;;;;;7.65;2.70;;;;;;;;;;5416341;26;20031;-81
2024/05/04 09:35:49;;;;;;;5.75;2.35;;;;;;;;;;5417195;26;20007;-80
2024/05/04 09:38:18;;;;;;;6.53;2.45;;;;;;;;;;5415242;26;20000;-80
2024/05/04 09:40:48;;;;;;;16.58;2.80;;;;;;;;;;5417959;26;20011;-84
2024/05/04 09:43:15;;;;;;;5.93;2.35;;;;;;;;;;5416106;26;20000;-81
2024/05/04 09:45:41;;;;;;;7.05;2.72;;;;;;;;;;5416174;26;20064;-82
2024/05/04 09:48:09;;;;;;;6.57;2.45;;;;;;;;;;5418464;26;19995;-82
2024/05/04 09:50:37;;;;;;;7.00;2.67;;;;;;;;;;5419460;26;19995;-82
2024/05/04 09:53:03;;;;;;;14.18;3.78;;;;;;;;;;5417081;26;19996;-82
2024/05/04 09:55:32;;;;;;;4.72;2.58;;;;;;;;;;5418325;26;20433;-82
2024/05/04 09:57:58;;;;;;;6.35;2.53;;;;;;;;;;5393321;26;20457;-83
2024/05/04 10:00:31;;;;;;;7.20;2.40;;;;;;;;;;5388256;26;20004;-82
2024/05/04 10:02:58;;;;;;;8.07;2.45;;;;;;;;;;5384127;26;20042;-82
2024/05/04 10:05:25;;;;;;;6.95;2.45;;;;;;;;;;5382294;26;20011;-83
2024/05/04 10:08:00;;;;;;;7.35;2.15;;;;;;;;;;5399368;26;19991;-81
2024/05/04 10:10:26;;;;;;;5.10;2.15;;;;;;;;;;5416972;26;19999;-81
2024/05/04 10:12:52;;;;;;;7.72;2.85;;;;;;;;;;5417338;26;20084;-82
2024/05/04 10:15:18;;;;;;;5.80;2.55;;;;;;;;;;5418868;26;20011;-82
2024/05/04 10:17:48;;;;;;;12.65;2.72;;;;;;;;;;5414941;26;19999;-82
2024/05/04 10:20:14;;;;;;;5.75;2.50;;;;;;;;;;5416428;26;20130;-82
2024/05/04 10:22:41;;;;;;;5.05;2.60;;;;;;;;;;5417518;26;20011;-82
2024/05/04 10:25:07;;;;;;;6.32;2.50;;;;;;;;;;5416489;26;19999;-81
2024/05/04 10:27:40;;;;;;;7.80;2.22;;;;;;;;;;5416044;26;20004;-82
2024/05/04 10:30:06;;;;;;;5.45;2.70;;;;;;;;;;5417784;26;20011;-84
2024/05/04 10:32:33;;;;;;;6.90;2.40;;;;;;;;;;5415986;26;20007;-82
2024/05/04 10:34:59;;;;;;;7.15;2.97;;;;;;;;;;5416134;26;20006;-82
2024/05/04 10:37:25;;;;;;;9.45;2.40;;;;;;;;;;5415891;26;20003;-83
2024/05/04 10:39:52;;;;;;;5.30;2.28;;;;;;;;;;5416491;26;20000;-84
2024/05/04 10:42:18;;;;;;;5.68;2.35;;;;;;;;;;5421107;26;20023;-85
2024/05/04 10:44:45;;;;;;;4.53;2.92;;;;;;;;;;5417668;26;20000;-84
2024/05/04 10:47:11;;;;;;;5.32;2.42;;;;;;;;;;5416820;26;20003;-85
2024/05/04 10:49:39;;;;;;;8.48;2.95;;;;;;;;;;5420311;26;20004;-84
2024/05/04 10:52:05;;;;;;;7.18;2.67;;;;;;;;;;5421244;26;20010;-84
2024/05/04 10:54:32;;;;;;;6.82;3.00;;;;;;;;;;5418562;26;20068;-82
2024/05/04 10:56:59;;;;;;;4.38;2.45;;;;;;;;;;5425487;26;20402;-84
2024/05/04 10:59:35;;;;;;;4.20;2.65;;;;;;;;;;5423435;26;20003;-84
2024/05/04 11:02:12;;;;;;;7.15;2.63;;;;;;;;;;5423522;26;19992;-84
2024/05/04 11:04:42;;;;;;;5.65;2.40;;;;;;;;;;5419219;26;19991;-83
2024/05/04 11:07:08;;;;;;;5.55;2.60;;;;;;;;;;5421751;26;20002;-81
2024/05/04 11:09:34;;;;;;;6.65;2.67;;;;;;;;;;5424196;26;19999;-82
2024/05/04 11:12:02;;;;;;;7.07;2.33;;;;;;;;;;5453071;26;20068;-84
2024/05/04 11:14:28;;;;;;;5.45;2.45;;;;;;;;;;5422794;26;19995;-85
2024/05/04 11:17:01;;;;;;;6.78;3.03;;;;;;;;;;5425052;26;19996;-82
2024/05/04 11:19:28;;;;;;;10.23;2.90;;;;;;;;;;5392958;26;20037;-85
2024/05/04 11:21:54;;;;;;;5.30;2.33;;;;;;;;;;5420265;26;19996;-82
2024/05/04 11:24:20;;;;;;;10.68;2.88;;;;;;;;;;5422486;26;20014;-82
2024/05/04 11:26:47;;;;;;;5.10;2.25;;;;;;;;;;5420847;26;20012;-83
2024/05/04 11:29:20;;;;;;;8.38;2.72;;;;;;;;;;5422827;26;20439;-83
2024/05/04 11:31:46;;;;;;;10.23;2.50;;;;;;;;;;5422104;26;20003;-82
2024/05/04 11:34:12;;;;;;;10.70;2.83;;;;;;;;;;5419503;26;20469;-81
2024/05/04 11:36:39;;;;;;;7.65;2.80;;;;;;;;;;5418318;26;19992;-81
2024/05/04 11:39:05;;;;;;;13.43;3.78;;;;;;;;;;5419545;26;20003;-82
2024/05/04 11:41:32;;;;;;;12.05;3.30;;;;;;;;;;5418862;26;20428;-81
2024/05/04 11:43:58;;;;;;;9.40;3.00;;;;;;;;;;5418923;26;20004;-82
2024/05/04 11:46:27;;;;;;;5.35;2.47;;;;;;;;;;5418558;26;20053;-82
2024/05/04 11:48:53;;;;;;;8.63;3.38;;;;;;;;;;5421011;26;20501;-82
2024/05/04 11:51:19;;;;;;;7.28;3.13;;;;;;;;;;5418813;26;20010;-80
2024/05/04 11:53:46;;;;;;;10.18;3.05;;;;;;;;;;5420096;26;20032;-81
2024/05/04 11:56:12;;;;;;;6.32;3.10;;;;;;;;;;5418444;26;19995;-82
2024/05/04 11:58:38;;;;;;;8.57;2.88;;;;;;;;;;5418546;26;20312;-81
2024/05/04 12:01:04;;;;;;;5.18;3.25;;;;;;;;;;5419634;26;20005;-82
2024/05/04 12:03:30;;;;;;;9.52;3.10;;;;;;;;;;5417883;26;20056;-81
2024/05/04 12:05:57;;;;;;;6.70;3.10;;;;;;;;;;5419120;26;19996;-81
2024/05/04 12:08:23;;;;;;;7.55;3.15;;;;;;;;;;5419978;26;20526;-81
2024/05/04 12:10:50;;;;;;;12.10;3.13;;;;;;;;;;5397439;26;20476;-82
2024/05/04 12:13:16;;;;;;;7.57;3.10;;;;;;;;;;5399487;26;20031;-80
2024/05/04 12:15:42;;;;;;;12.52;3.80;;;;;;;;;;5417410;26;19995;-82
2024/05/04 12:18:08;;;;;;;8.73;4.03;;;;;;;;;;5419166;26;20336;-80
2024/05/04 12:20:35;;;;;;;8.45;3.50;;;;;;;;;;5417587;26;20002;-79
2024/05/04 12:23:01;;;;;;;5.68;2.88;;;;;;;;;;5418633;26;19996;-79
2024/05/04 12:25:27;;;;;;;6.85;3.45;;;;;;;;;;5418262;26;20000;-80
2024/05/04 12:27:53;;;;;;;7.95;3.83;;;;;;;;;;5416562;26;20010;-81
2024/05/04 12:30:21;;;;;;;8.68;4.20;;;;;;;;;;5420208;26;19999;-80
2024/05/04 12:32:48;;;;;;;6.70;4.00;;;;;;;;;;5417768;26;20336;-79
2024/05/04 12:35:15;;;;;;;12.82;4.97;;;;;;;;;;5416526;26;20022;-81
2024/05/04 12:37:41;;;;;;;8.15;4.68;;;;;;;;;;5417656;26;20338;-81
2024/05/04 12:40:08;;;;;;;8.38;3.63;;;;;;;;;;5417712;26;20015;-80
2024/05/04 12:42:34;;;;;;;13.98;5.93;;;;;;;;;;5417293;26;20016;-81
2024/05/04 12:45:00;;;;;;;12.45;5.05;;;;;;;;;;5417358;26;20010;-80
2024/05/04 12:47:26;;;;;;;8.13;5.10;;;;;;;;;;5417602;26;20000;-81
2024/05/04 12:49:52;;;;;;;13.27;5.40;;;;;;;;;;5418919;26;20350;-82
2024/05/04 12:52:18;;;;;;;10.57;5.68;;;;;;;;;;5419748;26;20007;-79
2024/05/04 12:54:44;;;;;;;13.77;6.53;;;;;;;;;;5419646;26;20035;-81
2024/05/04 12:57:11;;;;;;;16.50;5.65;;;;;;;;;;5418047;26;19999;-80
2024/05/04 12:59:37;;;;;;;12.27;5.20;;;;;;;;;;5418624;26;20008;-80
2024/05/04 13:02:03;;;;;;;12.88;6.45;;;;;;;;;;5417856;26;20000;-80
2024/05/04 13:04:30;;;;;;;17.35;5.63;;;;;;;;;;5416692;26;20049;-80
2024/05/04 13:06:57;;;;;;;14.45;5.55;;;;;;;;;;5418851;26;19999;-81
2024/05/04 13:09:23;;;;;;;13.82;5.20;;;;;;;;;;5416580;26;20340;-80
2024/05/04 13:11:49;;;;;;;11.40;6.55;;;;;;;;;;5415069;26;19999;-80
2024/05/04 13:14:15;;;;;;;10.30;4.95;;;;;;;;;;5418870;26;20446;-80
2024/05/04 13:16:41;;;;;;;9.32;4.88;;;;;;;;;;5417661;26;20018;-81
2024/05/04 13:19:07;;;;;;;13.98;5.53;;;;;;;;;;5417019;26;19988;-80
2024/05/04 13:21:33;;;;;;;10.32;5.10;;;;;;;;;;5417507;26;20014;-81
2024/05/04 13:24:00;;;;;;;9.88;5.03;;;;;;;;;;5416758;26;20064;-80
2024/05/04 13:26:26;;;;;;;10.02;4.80;;;;;;;;;;5418255;26;20074;-83
2024/05/04 13:28:52;;;;;;;10.55;5.03;;;;;;;;;;5416898;26;20003;-81
2024/05/04 13:31:18;;;;;;;12.35;5.05;;;;;;;;;;5416396;26;20501;-80
2024/05/04 13:33:44;;;;;;;13.43;5.80;;;;;;;;;;5416772;26;20016;-80
2024/05/04 13:36:10;;;;;;;10.93;5.43;;;;;;;;;;5418641;26;20054;-80
2024/05/04 13:38:37;;;;;;;12.43;5.32;;;;;;;;;;5417113;26;20427;-81
2024/05/04 13:41:03;;;;;;;13.52;5.80;;;;;;;;;;5419632;26;20039;-83
2024/05/04 13:43:29;;;;;;;13.77;5.60;;;;;;;;;;5421551;26;20049;-79
2024/05/04 13:45:55;;;;;;;14.00;4.97;;;;;;;;;;5422691;26;20007;-80
2024/05/04 13:48:21;;;;;;;10.00;5.50;;;;;;;;;;5418225;26;20319;-82
2024/05/04 13:50:47;;;;;;;13.80;5.40;;;;;;;;;;5417716;26;20006;-83
2024/05/04 13:53:13;;;;;;;12.40;5.43;;;;;;;;;;5416589;26;20019;-82
2024/05/04 13:55:39;;;;;;;12.15;5.15;;;;;;;;;;5417955;26;20000;-82
2024/05/04 13:58:05;;;;;;;9.93;5.57;;;;;;;;;;5418045;26;19995;-78
2024/05/04 14:00:31;;;;;;;15.73;4.85;;;;;;;;;;5418249;26;20003;-82
2024/05/04 14:02:58;;;;;;;10.82;4.78;;;;;;;;;;5419420;26;19992;-81
2024/05/04 14:05:28;;;;;;;6.85;4.57;;;;;;;;;;5421741;26;20429;-84
2024/05/04 14:07:54;;;;;;;11.63;5.28;;;;;;;;;;5420316;26;20459;-82
2024/05/04 14:10:20;;;;;;;10.18;5.15;;;;;;;;;;5418668;26;19995;-81
2024/05/04 14:12:48;;;;;;;14.90;5.57;;;;;;;;;;5419165;26;19999;-84
2024/05/04 14:15:14;;;;;;;11.90;5.32;;;;;;;;;;5419110;26;20444;-85
2024/05/04 14:17:40;;;;;;;14.43;5.80;;;;;;;;;;5418653;26;20069;-84
2024/05/04 14:20:06;;;;;;;10.68;5.10;;;;;;;;;;5422032;26;19999;-85
2024/05/04 14:22:34;;;;;;;11.45;4.40;;;;;;;;;;5422823;26;20120;-82
2024/05/04 14:25:20;;;;;;;12.70;5.45;;;;;;;;;;5421346;26;20002;-84
2024/05/04 14:27:46;;;;;;;9.85;4.38;;;;;;;;;;5422179;26;19995;-84
2024/05/04 14:30:12;;;;;;;9.68;4.30;;;;;;;;;;5423630;26;20004;-82
2024/05/04 14:32:39;;;;;;;12.35;5.32;;;;;;;;;;5421886;26;20004;-82
2024/05/04 14:35:06;;;;;;;13.57;4.28;;;;;;;;;;5421723;26;20366;-79